• Join FlightAware (Why Join?)
  • Login
  • US Flag 
04:34AM EDT


 

Airport Tracker/Info


-or-


 

Live Flight TrackerFlight Track Log ✈ SWA3497 ✈ 17-Apr-2013 ✈ KSDF - KBWI

Flight Track Log - Related Links

Times and Time Zones

All times are in EDT time to prevent confusion due to time zone crossing. See the SWA3497 flight status page for this flight to view local times or setup timezone preferences in your user account.

Time Position Orientation Groundspeed Altitude Reporting Facility
EDT Latitude Longitude Course Direction KTS MPH feet Rate Location/Type
02:10PM 38.1358 -85.7322 167° South 170 196 2,600  Level FAA TRACON SMA TRACON (SMA)
02:10PM 38.1189 -85.7258 163° South 199 229 3,600 3,300 Climbing FAA TRACON SMA TRACON (SMA)
02:10PM 38.1017 -85.7189 162° South 211 243 4,800 2,100 Climbing FAA TRACON SMA TRACON (SMA)
02:11PM 38.0811 -85.6994 143° Southeast 242 278 5,000 120 Climbing FAA TRACON SMA TRACON (SMA)
02:11PM 38.0686 -85.6747 123° Southeast 265 305 4,900 -180 Descending FAA TRACON SMA TRACON (SMA)
02:11PM 38.0558 -85.6503 124° Southeast 272 313 4,900 120 Level FAA TRACON SMA TRACON (SMA)
02:12PM 38.0400 -85.6194 123° Southeast 272 313 5,000 840 Climbing FAA TRACON SMA TRACON (SMA)
02:12PM 38.0275 -85.5942 122° Southeast 272 313 5,500 1,500 Climbing FAA TRACON SMA TRACON (SMA)
02:12PM 38.0153 -85.5689 122° Southeast 274 315 6,000 1,800 Climbing FAA TRACON SMA TRACON (SMA)
02:13PM 37.9994 -85.5367 122° Southeast 280 322 6,700 1,380 Climbing FAA TRACON SMA TRACON (SMA)
02:13PM 37.9939 -85.5067 103° East 289 333 6,900 240 Climbing FAA TRACON SMA TRACON (SMA)
02:13PM 37.9992 -85.4761 78° East 295 339 6,900 120 Level FAA TRACON SMA TRACON (SMA)
02:14PM 38.0092 -85.4392 71° East 291 335 7,000 1,080 Climbing FAA TRACON SMA TRACON (SMA)
02:14PM 38.0169 -85.4086 72° East 292 336 7,700 2,820 Climbing FAA TRACON SMA TRACON (SMA)
02:14PM 38.0278 -85.3703 70° East 296 341 9,100 3,780 Climbing FAA TRACON SMA TRACON (SMA)
02:15PM 38.0356 -85.3394 72° East 299 344 10,000 2,880 Climbing FAA TRACON SMA TRACON (SMA)
02:15PM 38.0436 -85.3072 72° East 305 351 10,900 2,760 Climbing FAA TRACON SMA TRACON (SMA)
02:15PM 38.0481 -85.2714 81° East 323 372 11,900 3,660 Climbing FAA TRACON SMA TRACON (SMA)
02:16PM 38.0522 -85.2261 83° East 336 387 13,300 3,480 Climbing FAA TRACON SMA TRACON (SMA)
02:16PM 38.0564 -85.1881 82° East 348 400 14,400 3,360 Climbing FAA TRACON SMA TRACON (SMA)
02:16PM 38.0608 -85.1403 83° East 355 409 15,800 4,140 Climbing FAA TRACON SMA TRACON (SMA)
02:17PM 38.0656 -85.1006 81° East 363 418 16,900 3,300 Climbing FAA TRACON SMA TRACON (SMA)
02:17PM 38.0706 -85.0503 83° East 372 428 18,000 2,640 Climbing FAA TRACON SMA TRACON (SMA)
02:17PM 38.0753 -85.0086 82° East 382 440 18,800 2,880 Climbing FAA TRACON SMA TRACON (SMA)
02:18PM 38.0792 -84.9661 83° East 391 450 19,800 3,120 Climbing FAA TRACON SMA TRACON (SMA)
02:18PM 38.0831 -84.9228 83° East 399 459 20,800 2,880 Climbing FAA TRACON SMA TRACON (SMA)
02:18PM 38.0881 -84.8786 82° East 405 466 21,700 3,120 Climbing FAA TRACON SMA TRACON (SMA)
02:19PM 38.0925 -84.8233 84° East 410 472 22,900 3,120 Climbing FAA TRACON SMA TRACON (SMA)
02:19PM 38.0986 -84.7778 80° East 418 481 23,800 2,820 Climbing FAA TRACON SMA TRACON (SMA)
02:19PM 38.1033 -84.7208 84° East 422 486 24,800 2,580 Climbing FAA TRACON SMA TRACON (SMA)
02:20PM 38.1083 -84.6744 82° East 427 491 25,600 2,280 Climbing FAA TRACON SMA TRACON (SMA)
02:20PM 38.1131 -84.6275 83° East 434 499 26,300 2,400 Climbing FAA TRACON SMA TRACON (SMA)
02:20PM 38.1203 -84.5681 81° East 440 506 27,200 2,400 Climbing FAA TRACON SMA TRACON (SMA)
02:21PM 38.1247 -84.5200 83° East 445 512 27,900 2,100 Climbing FAA TRACON SMA TRACON (SMA)
02:21PM 38.1300 -84.4711 82° East 450 518 28,600 2,040 Climbing FAA TRACON SMA TRACON (SMA)
02:22PM 38.1403 -84.3386 84° East 455 524 30,400 2,160 Climbing Indianapolis Center
02:23PM 38.1564 -84.1742 83° East 466 536 32,700 1,200 Climbing Indianapolis Center
02:24PM 38.1700 -84.0128 84° East 462 532 33,000 120 Climbing Indianapolis Center
02:25PM 38.1850 -83.8497 83° East 462 532 33,000 840 Level Indianapolis Center
02:26PM 38.1986 -83.6869 84° East 463 533 34,800 1,920 Climbing Indianapolis Center
02:27PM 38.2158 -83.4950 83° East 466 536 37,000 1,020 Climbing Indianapolis Center
02:28PM 38.2292 -83.3328 84° East 460 529 37,000  Level Indianapolis Center
02:29PM 38.2419 -83.1731 84° East 456 525 37,000  Level Indianapolis Center
02:30PM 38.2553 -83.0117 84° East 458 527 37,000  Level Indianapolis Center
02:31PM 38.2686 -82.8517 84° East 455 524 37,000  Level Indianapolis Center
02:32PM 38.2806 -82.6911 85° East 454 522 37,000  Level Indianapolis Center
02:33PM 38.2933 -82.5289 84° East 460 529 37,000  Level Indianapolis Center
02:34PM 38.3072 -82.3531 84° East 459 528 37,000  Level Indianapolis Center
02:35PM 38.3192 -82.1875 85° East 467 537 37,000  Level Indianapolis Center
02:36PM 38.3319 -82.0256 84° East 463 533 37,000  Level Indianapolis Center
02:37PM 38.3439 -81.8589 85° East 473 544 37,000  Level Indianapolis Center
02:38PM 38.3467 -81.6594 89° East 478 550 37,000  Level Indianapolis Center
02:39PM 38.3408 -81.4942 93° East 475 547 37,000  Level Indianapolis Center
02:40PM 38.3353 -81.3264 92° East 478 550 37,000  Level Indianapolis Center
02:41PM 38.3294 -81.1600 93° East 476 548 37,000  Level Indianapolis Center
02:42PM 38.3250 -81.0361 93° East 481 554 37,000  Level Washington Center
02:43PM 38.3178 -80.8717 93° East 476 548 37,000  Level Washington Center
02:44PM 38.3133 -80.6858 92° East 476 548 37,000  Level Washington Center
02:45PM 38.3078 -80.5189 92° East 476 548 37,000  Level Washington Center
02:46PM 38.2997 -80.3542 94° East 476 548 37,000  Level Washington Center
02:47PM 38.2939 -80.1844 92° East 476 548 37,000  Level Washington Center
02:48PM 38.2953 -80.0364 89° East 476 548 37,000  Level Washington Center
02:49PM 38.3242 -79.8714 77° East 476 548 37,000 -180 Level Washington Center
02:50PM 38.3489 -79.7061 79° East 476 548 36,700 -960 Descending Washington Center
02:51PM 38.3772 -79.5408 78° East 481 554 35,200 -1,800 Descending Washington Center
02:52PM 38.4081 -79.3594 78° East 481 554 33,200 -2,400 Descending Washington Center
02:53PM 38.4361 -79.1939 78° East 481 554 30,400 -2,580 Descending Washington Center
02:54PM 38.4617 -79.0361 78° East 475 547 28,100 -1,740 Descending Washington Center
02:55PM 38.4892 -78.8783 77° East 457 526 27,000 -600 Descending Washington Center
02:56PM 38.5078 -78.7278 81° East 440 506 27,000  Level Washington Center
02:57PM 38.5300 -78.5881 78° East 435 501 27,000  Level Washington Center
02:58PM 38.5567 -78.4297 78° East 449 517 27,000 -420 Level Washington Center
02:59PM 38.5817 -78.2581 79° East 449 517 26,200 -1,800 Descending Washington Center
03:00PM 38.6033 -78.1181 79° East 449 517 23,400 -2,880 Descending Washington Center
03:01PM 38.6297 -77.9517 78° East 442 509 20,400 -2,220 Descending Washington Center
03:02PM 38.6425 -77.8217 83° East 421 484 19,000 -720 Descending Washington Center
03:03PM 38.6536 -77.6678 85° East 397 457 19,000 -360 Level Washington Center
03:04PM 38.6575 -77.5589 87° East 358 412 18,300 -1,260 Descending Washington Center
03:05PM 38.6667 -77.4167 85° East 328 377 16,400 -1,260 Descending Potomac TRACON
03:06PM 38.6667 -77.3000 90° East 321 369 15,700 -1,020 Descending Potomac TRACON
03:07PM 38.6833 -77.2000 78° East 314 361 14,400 -1,500 Descending Potomac TRACON
03:08PM 38.6833 -77.0833 90° East 325 374 12,700 -1,320 Descending Potomac TRACON
03:09PM 38.7000 -76.9667 80° East 329 379 11,900 -1,200 Descending Potomac TRACON
03:10PM 38.7000 -76.8667 90° East 306 352 10,400 -1,440 Descending Potomac TRACON
03:11PM 38.7000 -76.7667 90° East 289 333 9,100 -1,080 Descending Potomac TRACON
03:12PM 38.7333 -76.6667 67° East 279 321 8,300 -1,200 Descending Potomac TRACON
03:13PM 38.7833 -76.5833 52° Northeast 279 321 6,800 -1,200 Descending Potomac TRACON
03:14PM 38.8333 -76.5333 38° Northeast 266 306 5,900 -780 Descending Potomac TRACON
03:15PM 38.8833 -76.5500 345° North 224 258 5,300 -480 Descending Potomac TRACON
03:16PM 38.9500 -76.5833 339° North 222 255 5,000 -180 Descending Potomac TRACON
03:17PM 38.9833 -76.6333 311° West 223 257 5,000 -300 Level Potomac TRACON
03:18PM 39.0167 -76.7000 303° West 223 257 4,500 -540 Descending Potomac TRACON
03:19PM 39.0500 -76.7667 303° West 220 253 4,000 -660 Descending Potomac TRACON
03:20PM 39.0833 -76.8333 303° West 224 258 3,200 -900 Descending Potomac TRACON
03:21PM 39.1167 -76.9000 303° West 221 254 2,300 -660 Descending Potomac TRACON
03:22PM 39.1667 -76.9000 360° North 200 230 2,000 -180 Descending Potomac TRACON
03:23PM 39.1833 -76.8500 67° East 203 234 2,000  Level Potomac TRACON
03:24PM 39.1833 -76.7833 90° East 183 211 2,000 -480 Level Potomac TRACON
03:25PM 39.1833 -76.7333 90° East 141 162 1,100 -900 Descending Potomac TRACON